Terminal Aerodrome Forecast
Issued by NWS Greer, SC

Home | Current Version | Previous Version | Text Only | Print | Product List | Glossary On
Versions: 1 2 3 4 5 6 7 8 9 10 11 12 13 14 15 16 17 18 19 20 21 22 23 24 25 26 27 28 29 30
000
FTUS42 KGSP 211735
TAFAVL
TAF
KAVL 211735Z 2118/2218 16008KT P6SM BKN040
     FM220200 13004KT P6SM OVC025
      TEMPO 2202/2204 4SM -SHRA OVC015
     FM220400 13004KT 5SM -SHRA OVC015
     FM220600 13003KT 4SM -SHRA BR OVC008
     FM221500 15003KT P6SM OVC008 PROB30 2215/2218 3/4SM -SHRA
      OVC003=

USA.gov is the U.S. government's official web portal to all federal, state and local government web resources and services.